Time;durP1;ratioP1;P1;durP2;ratioP2;P2;SDS_P1;SDS_P2;PMS_P1;PMS_P2;Temp;Humidity;BMP_temperature;BMP_pressure;BME280_temperature;BME280_humidity;BME280_pressure;Samples;Min_cycle;Max_cycle;Signal;HPM_P1;HPM_P2
2022/10/16 00:09:48;;;;;;;6.23;1.40;;;18.20;99.90;;;;;;7975226;72;26288;-61
2022/10/16 00:19:51;;;;;;;6.53;1.80;;;18.30;99.90;;;;;;7930468;73;26339;-60
2022/10/16 00:29:53;;;;;;;6.27;1.77;;;18.20;99.90;;;;;;7930552;73;26292;-62
2022/10/16 00:39:56;;;;;;;9.63;1.57;;;18.20;99.90;;;;;;7914241;73;26292;-63
2022/10/16 00:50:05;;;;;;;6.63;1.83;;;18.20;99.90;;;;;;7943245;73;26226;-62
2022/10/16 01:00:10;;;;;;;5.77;1.43;;;18.20;99.90;;;;;;7891084;73;26742;-62
2022/10/16 01:10:21;;;;;;;6.30;1.60;;;18.20;99.90;;;;;;7892497;73;26298;-62
2022/10/16 01:20:30;;;;;;;4.83;1.10;;;18.20;99.90;;;;;;7921737;73;26214;-62
2022/10/16 01:30:35;;;;;;;1.80;0.90;;;18.00;99.90;;;;;;7945542;73;26257;-62
2022/10/16 01:40:41;;;;;;;6.57;1.20;;;18.10;99.90;;;;;;7953180;73;26225;-61
2022/10/16 01:50:46;;;;;;;3.70;1.57;;;18.10;99.90;;;;;;7967672;73;26836;-62
2022/10/16 02:00:49;;;;;;;3.80;0.83;;;18.00;99.90;;;;;;7937463;73;26301;-62
2022/10/16 02:10:52;;;;;;;4.80;2.00;;;18.00;99.90;;;;;;7911548;73;26307;-62
2022/10/16 02:20:57;;;;;;;4.93;1.67;;;18.10;99.90;;;;;;7865394;73;26232;-63
2022/10/16 02:31:03;;;;;;;1.77;0.97;;;18.10;99.90;;;;;;7926076;73;26289;-61
2022/10/16 02:41:05;;;;;;;1.10;0.80;;;18.10;99.90;;;;;;7939601;73;26229;-63
2022/10/16 02:51:08;;;;;;;3.10;1.00;;;18.10;99.90;;;;;;7892869;73;26353;-63
2022/10/16 03:01:12;;;;;;;2.17;0.80;;;18.10;99.90;;;;;;7952638;73;26802;-60
2022/10/16 03:11:15;;;;;;;4.33;0.93;;;18.20;99.90;;;;;;7959623;73;26808;-63
2022/10/16 03:21:18;;;;;;;2.00;0.80;;;18.10;99.90;;;;;;7966174;73;26608;-66
2022/10/16 03:31:20;;;;;;;2.03;0.63;;;18.10;99.90;;;;;;7959270;73;26254;-63
2022/10/16 03:41:23;;;;;;;1.77;0.80;;;18.00;99.90;;;;;;7964927;73;26297;-60
2022/10/16 03:51:25;;;;;;;0.97;0.70;;;18.00;99.90;;;;;;7960109;73;26237;-60
2022/10/16 04:01:28;;;;;;;1.47;0.70;;;18.00;99.90;;;;;;7942523;73;26238;-60
2022/10/16 04:11:30;;;;;;;1.13;0.60;;;18.00;99.90;;;;;;7918235;73;27164;-59
2022/10/16 04:21:33;;;;;;;1.83;0.60;;;17.90;99.90;;;;;;7954791;73;26316;-60
2022/10/16 04:31:35;;;;;;;1.47;0.77;;;18.00;99.90;;;;;;7850073;73;26779;-63
2022/10/16 04:41:38;;;;;;;2.97;0.60;;;18.00;99.90;;;;;;7893008;73;26231;-61
2022/10/16 04:51:40;;;;;;;0.70;0.70;;;18.00;99.90;;;;;;7947852;73;26238;-62
2022/10/16 05:01:43;;;;;;;2.73;0.70;;;18.00;99.90;;;;;;7967384;73;26815;-58
2022/10/16 05:11:46;;;;;;;1.90;0.70;;;18.00;99.90;;;;;;7969585;73;26695;-59
2022/10/16 05:21:48;;;;;;;1.30;0.70;;;17.90;99.90;;;;;;7967129;73;26233;-59
2022/10/16 05:31:52;;;;;;;2.57;0.90;;;17.90;99.90;;;;;;7938444;73;26251;-60
2022/10/16 05:41:55;;;;;;;4.17;1.23;;;18.00;99.90;;;;;;7932789;73;26735;-62
2022/10/16 05:51:57;;;;;;;6.63;0.70;;;17.90;99.90;;;;;;7912792;73;26240;-68
2022/10/16 06:02:01;;;;;;;3.03;0.90;;;18.00;99.90;;;;;;7765327;75;26225;-65
2022/10/16 06:12:04;;;;;;;0.67;0.50;;;17.90;99.90;;;;;;7769782;75;26263;-60
2022/10/16 06:22:07;;;;;;;2.60;0.60;;;17.90;99.90;;;;;;7763916;75;26244;-58
2022/10/16 06:32:09;;;;;;;2.47;0.60;;;18.00;99.90;;;;;;7719888;75;26334;-64
2022/10/16 06:42:12;;;;;;;3.23;0.80;;;18.00;99.90;;;;;;7961820;73;26334;-60
2022/10/16 06:52:14;;;;;;;4.67;1.13;;;17.90;99.90;;;;;;7950296;73;26746;-62
2022/10/16 07:02:17;;;;;;;7.00;1.00;;;18.00;99.90;;;;;;7946070;73;26256;-60
2022/10/16 07:12:19;;;;;;;4.20;1.03;;;18.00;99.90;;;;;;7967225;73;26255;-60
2022/10/16 07:22:22;;;;;;;2.23;0.80;;;18.00;99.90;;;;;;7962515;73;26636;-63
2022/10/16 07:32:25;;;;;;;1.03;0.93;;;18.00;99.90;;;;;;7962057;73;26237;-60
2022/10/16 07:42:28;;;;;;;5.23;1.70;;;18.00;99.90;;;;;;7963796;73;26214;-60
2022/10/16 07:52:31;;;;;;;7.33;1.40;;;18.00;99.90;;;;;;7942228;73;26295;-63
2022/10/16 08:02:33;;;;;;;4.23;0.97;;;18.00;99.90;;;;;;7955060;73;26229;-63
2022/10/16 08:12:36;;;;;;;1.77;1.00;;;18.00;99.90;;;;;;7947883;73;26260;-63
2022/10/16 08:22:39;;;;;;;5.43;2.30;;;18.00;99.90;;;;;;7969314;73;26245;-61
2022/10/16 08:32:41;;;;;;;4.53;1.23;;;18.00;99.90;;;;;;7959745;73;26253;-60
2022/10/16 08:42:52;;;;;;;9.37;3.13;;;18.10;99.90;;;;;;7969992;73;26695;-63
2022/10/16 08:52:55;;;;;;;13.47;7.40;;;18.10;99.90;;;;;;7959131;73;26244;-63
2022/10/16 09:03:10;;;;;;;8.60;3.80;;;18.20;99.90;;;;;;7907465;73;26334;-59
2022/10/16 09:13:32;;;;;;;3.63;2.07;;;18.20;99.90;;;;;;7786273;75;26301;-60
2022/10/16 09:23:38;;;;;;;4.33;2.40;;;18.20;99.90;;;;;;7723941;75;27144;-60
2022/10/16 09:33:42;;;;;;;14.43;3.63;;;18.10;99.90;;;;;;7902225;74;26787;-62
2022/10/16 09:43:57;;;;;;;9.67;2.30;;;18.20;99.90;;;;;;7910283;74;26241;-60
2022/10/16 09:54:08;;;;;;;6.13;1.77;;;18.20;99.90;;;;;;7916435;74;26219;-60
2022/10/16 10:04:11;;;;;;;3.23;1.60;;;18.20;99.90;;;;;;7734389;75;26260;-59
2022/10/16 10:14:20;;;;;;;2.47;1.07;;;18.30;99.90;;;;;;7918273;73;26232;-61
2022/10/16 10:24:22;;;;;;;14.50;3.17;;;18.40;99.90;;;;;;7910105;74;26310;-62
2022/10/16 10:34:42;;;;;;;9.77;1.90;;;18.50;99.90;;;;;;7913309;73;26292;-61
2022/10/16 10:45:03;;;;;;;11.33;2.10;;;18.60;99.90;;;;;;7909361;73;26262;-60
2022/10/16 10:55:28;;;;;;;3.53;1.37;;;18.70;99.90;;;;;;7837813;73;26193;-62
2022/10/16 11:05:40;;;;;;;5.43;0.90;;;18.70;99.90;;;;;;7916102;74;26977;-60
2022/10/16 11:15:44;;;;;;;6.13;0.97;;;18.70;99.90;;;;;;7894622;73;26334;-61
2022/10/16 11:25:48;;;;;;;7.60;1.90;;;18.70;99.90;;;;;;7794827;75;26804;-60
2022/10/16 11:36:24;;;;;;;5.30;1.63;;;18.70;99.90;;;;;;7932028;73;26304;-58
2022/10/16 11:46:27;;;;;;;6.63;1.40;;;18.80;99.90;;;;;;7910869;73;26742;-63
2022/10/16 11:56:33;;;;;;;3.47;2.43;;;18.80;99.90;;;;;;7878398;73;26298;-57
2022/10/16 12:06:38;;;;;;;4.67;1.50;;;18.80;99.90;;;;;;7932447;73;26314;-60
2022/10/16 12:17:02;;;;;;;1.83;0.87;;;18.90;99.90;;;;;;7954713;73;26770;-57
2022/10/16 12:27:07;;;;;;;3.03;1.20;;;18.90;99.90;;;;;;7933941;73;26279;-61
2022/10/16 12:37:15;;;;;;;1.83;0.83;;;19.00;99.90;;;;;;7961443;73;26773;-58
2022/10/16 12:47:24;;;;;;;4.97;0.80;;;19.00;99.90;;;;;;7965219;73;26214;-61
2022/10/16 12:57:55;;;;;;;1.53;0.73;;;19.00;99.90;;;;;;7953869;73;26312;-61
2022/10/16 13:08:37;;;;;;;2.30;1.30;;;19.00;99.90;;;;;;7959393;73;26225;-60
2022/10/16 13:18:51;;;;;;;1.40;0.70;;;19.00;99.90;;;;;;7966882;73;26229;-60
2022/10/16 13:28:54;;;;;;;2.47;1.37;;;19.10;99.90;;;;;;7930318;73;26225;-63
2022/10/16 13:39:02;;;;;;;4.37;1.27;;;19.10;99.90;;;;;;7888894;73;26816;-60
2022/10/16 13:49:08;;;;;;;3.37;1.30;;;19.10;99.90;;;;;;7870767;73;26226;-58
2022/10/16 13:59:25;;;;;;;7.73;2.83;;;19.10;99.90;;;;;;7934377;73;26291;-60
2022/10/16 14:09:30;;;;;;;4.40;1.87;;;19.10;99.90;;;;;;7937621;73;26295;-57
2022/10/16 14:19:33;;;;;;;2.20;1.50;;;19.10;99.90;;;;;;7947301;73;26241;-59
2022/10/16 14:29:35;;;;;;;9.43;1.33;;;19.10;99.90;;;;;;7905425;73;26225;-59
2022/10/16 14:39:38;;;;;;;6.27;1.97;;;19.10;99.90;;;;;;7863906;73;26319;-61
2022/10/16 14:49:42;;;;;;;6.17;1.90;;;19.10;99.90;;;;;;7956399;73;26217;-60
2022/10/16 14:59:45;;;;;;;3.77;1.90;;;19.10;99.90;;;;;;7956431;73;26211;-60
2022/10/16 15:09:48;;;;;;;14.37;1.90;;;19.10;99.90;;;;;;7961647;73;26287;-58
2022/10/16 15:19:51;;;;;;;4.73;1.53;;;19.10;99.90;;;;;;7964076;73;26307;-60
2022/10/16 15:29:53;;;;;;;11.67;1.40;;;19.00;99.90;;;;;;7966479;73;26237;-61
2022/10/16 15:39:56;;;;;;;4.33;1.43;;;19.10;99.90;;;;;;7965765;73;26659;-60
2022/10/16 15:49:58;;;;;;;1.77;1.60;;;19.10;99.90;;;;;;7962196;73;26295;-61
2022/10/16 16:00:01;;;;;;;1.80;1.30;;;19.00;99.90;;;;;;7950562;73;26284;-60
2022/10/16 16:10:05;;;;;;;4.43;1.80;;;19.00;99.90;;;;;;7936512;73;27017;-60
2022/10/16 16:20:09;;;;;;;6.13;2.00;;;19.00;99.90;;;;;;7796757;75;26318;-60
2022/10/16 16:30:12;;;;;;;6.70;2.10;;;19.00;99.90;;;;;;7720838;75;26323;-61
2022/10/16 16:40:14;;;;;;;2.67;1.80;;;19.00;99.90;;;;;;8010412;72;26240;-59
2022/10/16 16:50:17;;;;;;;3.00;1.90;;;19.00;99.90;;;;;;8001347;72;26307;-59
2022/10/16 17:00:19;;;;;;;4.00;1.90;;;18.90;99.90;;;;;;7999546;72;26412;-60
2022/10/16 17:10:22;;;;;;;7.07;1.70;;;18.90;99.90;;;;;;7962657;73;27040;-59
2022/10/16 17:20:24;;;;;;;8.00;2.00;;;18.90;99.90;;;;;;7999270;72;26301;-58
2022/10/16 17:30:27;;;;;;;8.10;2.30;;;18.90;99.90;;;;;;7968202;72;26253;-58
2022/10/16 17:40:29;;;;;;;7.60;2.13;;;18.90;99.90;;;;;;7981954;72;26310;-59
2022/10/16 17:50:32;;;;;;;5.47;2.10;;;18.90;99.90;;;;;;7999338;73;26704;-62
2022/10/16 18:00:34;;;;;;;5.07;1.90;;;18.90;99.90;;;;;;7957641;73;26225;-64
2022/10/16 18:10:39;;;;;;;13.60;2.73;;;18.90;99.90;;;;;;7952257;73;26717;-60
2022/10/16 18:20:41;;;;;;;3.57;2.10;;;18.90;99.90;;;;;;7943272;73;26306;-59
2022/10/16 18:30:44;;;;;;;4.87;2.37;;;19.00;99.90;;;;;;7930431;73;26272;-60
2022/10/16 18:40:47;;;;;;;15.57;3.93;;;18.90;99.90;;;;;;7955671;73;26231;-63
2022/10/16 18:50:49;;;;;;;13.97;5.10;;;19.00;99.90;;;;;;7965523;73;26292;-61
2022/10/16 19:00:52;;;;;;;15.20;4.47;;;19.00;99.90;;;;;;7960283;73;26299;-61
2022/10/16 19:10:54;;;;;;;18.17;5.60;;;19.00;99.90;;;;;;7947126;73;26735;-62
2022/10/16 19:21:00;;;;;;;18.23;5.87;;;19.00;99.90;;;;;;7899813;73;26239;-62
2022/10/16 19:31:04;;;;;;;19.20;6.20;;;19.00;99.90;;;;;;7877272;73;26315;-62
2022/10/16 19:41:12;;;;;;;21.03;5.40;;;19.00;99.90;;;;;;7932337;73;26744;-62
2022/10/16 19:51:17;;;;;;;17.57;6.67;;;19.00;99.90;;;;;;7903950;73;26307;-64
2022/10/16 20:01:20;;;;;;;19.27;6.17;;;19.00;99.90;;;;;;7949322;73;26780;-62
2022/10/16 20:11:25;;;;;;;18.13;5.87;;;19.00;99.90;;;;;;7914246;73;26246;-61
2022/10/16 20:21:30;;;;;;;14.10;5.63;;;19.00;99.90;;;;;;7912807;73;26220;-61
2022/10/16 20:31:34;;;;;;;13.50;5.70;;;18.90;99.90;;;;;;7970202;73;26234;-61
2022/10/16 20:41:36;;;;;;;9.53;4.80;;;18.90;99.90;;;;;;7959550;73;26237;-63
2022/10/16 20:51:39;;;;;;;11.63;4.90;;;18.90;99.90;;;;;;7957352;73;26225;-62
2022/10/16 21:01:41;;;;;;;9.37;4.17;;;18.90;99.90;;;;;;7916380;73;26242;-61
2022/10/16 21:11:44;;;;;;;8.80;4.33;;;18.90;99.90;;;;;;7896256;73;26720;-60
2022/10/16 21:21:46;;;;;;;12.07;4.23;;;18.90;99.90;;;;;;7894923;73;26325;-64
2022/10/16 21:31:49;;;;;;;8.50;3.97;;;18.80;99.90;;;;;;7921305;73;26234;-63
2022/10/16 21:41:52;;;;;;;7.17;3.80;;;18.80;99.90;;;;;;7938709;73;26284;-65
2022/10/16 21:51:54;;;;;;;5.43;2.90;;;18.90;99.90;;;;;;7910408;73;26347;-63
2022/10/16 22:01:57;;;;;;;5.80;3.30;;;18.80;99.90;;;;;;7908339;73;26322;-63
2022/10/16 22:11:59;;;;;;;7.30;3.33;;;18.90;99.90;;;;;;7919295;73;26709;-61
2022/10/16 22:22:02;;;;;;;11.13;3.87;;;18.90;99.90;;;;;;7914773;73;26348;-61
2022/10/16 22:32:04;;;;;;;6.93;3.30;;;18.90;99.90;;;;;;7858057;73;27029;-61
2022/10/16 22:42:07;;;;;;;5.97;2.80;;;18.90;99.90;;;;;;7860018;73;26238;-59
2022/10/16 22:52:09;;;;;;;5.07;2.80;;;18.90;99.90;;;;;;7868217;73;26241;-59
2022/10/16 23:02:12;;;;;;;6.17;2.83;;;18.90;99.90;;;;;;7850059;73;26226;-62
2022/10/16 23:12:14;;;;;;;8.43;3.83;;;18.90;99.90;;;;;;7908136;73;26249;-61
2022/10/16 23:22:17;;;;;;;10.50;3.93;;;18.90;99.90;;;;;;7867932;73;26245;-65
2022/10/16 23:32:19;;;;;;;9.73;4.50;;;18.90;99.90;;;;;;7903575;73;26240;-64
2022/10/16 23:42:22;;;;;;;9.80;3.60;;;18.90;99.90;;;;;;7906592;73;26771;-66
2022/10/16 23:52:24;;;;;;;10.10;3.80;;;18.90;99.90;;;;;;7836892;73;26241;-66
